sensor_id;sensor_type;location;lat;lon;timestamp;P1;durP1;ratioP1;P2;durP2;ratioP2
73331;SDS011;61560;33.718;73.040;2022-12-07T00:01:11;21.65;;;7.50;;
73331;SDS011;61560;33.718;73.040;2022-12-07T00:03:42;16.42;;;6.78;;
73331;SDS011;61560;33.718;73.040;2022-12-07T00:06:10;18.63;;;7.15;;
73331;SDS011;61560;33.718;73.040;2022-12-07T00:08:40;14.93;;;6.85;;
73331;SDS011;61560;33.718;73.040;2022-12-07T00:11:20;21.20;;;8.05;;
73331;SDS011;61560;33.718;73.040;2022-12-07T00:13:55;15.20;;;6.80;;
73331;SDS011;61560;33.718;73.040;2022-12-07T00:16:27;24.83;;;8.43;;
73331;SDS011;61560;33.718;73.040;2022-12-07T00:18:55;23.65;;;8.43;;
73331;SDS011;61560;33.718;73.040;2022-12-07T00:21:24;22.08;;;8.55;;
73331;SDS011;61560;33.718;73.040;2022-12-07T00:23:55;23.35;;;10.07;;
73331;SDS011;61560;33.718;73.040;2022-12-07T00:29:02;24.73;;;10.18;;
73331;SDS011;61560;33.718;73.040;2022-12-07T00:31:32;26.35;;;8.93;;
73331;SDS011;61560;33.718;73.040;2022-12-07T00:34:06;29.05;;;11.48;;
73331;SDS011;61560;33.718;73.040;2022-12-07T00:36:38;24.10;;;10.02;;
73331;SDS011;61560;33.718;73.040;2022-12-07T00:39:04;31.67;;;9.98;;
73331;SDS011;61560;33.718;73.040;2022-12-07T00:41:32;30.38;;;10.90;;
73331;SDS011;61560;33.718;73.040;2022-12-07T00:46:45;33.88;;;11.40;;
73331;SDS011;61560;33.718;73.040;2022-12-07T00:49:12;33.50;;;12.15;;
73331;SDS011;61560;33.718;73.040;2022-12-07T00:51:39;29.60;;;11.73;;
73331;SDS011;61560;33.718;73.040;2022-12-07T00:54:06;31.77;;;12.02;;
73331;SDS011;61560;33.718;73.040;2022-12-07T00:56:33;29.73;;;11.93;;
73331;SDS011;61560;33.718;73.040;2022-12-07T00:59:02;27.15;;;11.07;;
73331;SDS011;61560;33.718;73.040;2022-12-07T01:01:33;32.55;;;11.55;;
73331;SDS011;61560;33.718;73.040;2022-12-07T01:04:02;27.63;;;10.90;;
73331;SDS011;61560;33.718;73.040;2022-12-07T01:06:29;37.08;;;12.70;;
73331;SDS011;61560;33.718;73.040;2022-12-07T01:08:57;31.83;;;10.68;;
73331;SDS011;61560;33.718;73.040;2022-12-07T01:11:26;27.00;;;12.02;;
73331;SDS011;61560;33.718;73.040;2022-12-07T01:13:56;27.63;;;11.93;;
73331;SDS011;61560;33.718;73.040;2022-12-07T01:16:24;22.35;;;10.10;;
73331;SDS011;61560;33.718;73.040;2022-12-07T01:18:55;27.85;;;10.60;;
73331;SDS011;61560;33.718;73.040;2022-12-07T01:21:33;35.08;;;10.88;;
73331;SDS011;61560;33.718;73.040;2022-12-07T01:24:04;19.75;;;9.07;;
73331;SDS011;61560;33.718;73.040;2022-12-07T01:26:32;25.98;;;9.35;;
73331;SDS011;61560;33.718;73.040;2022-12-07T01:29:00;28.05;;;11.18;;
73331;SDS011;61560;33.718;73.040;2022-12-07T01:31:27;25.10;;;8.98;;
73331;SDS011;61560;33.718;73.040;2022-12-07T01:33:56;30.55;;;10.30;;
73331;SDS011;61560;33.718;73.040;2022-12-07T01:38:57;24.15;;;9.43;;
73331;SDS011;61560;33.718;73.040;2022-12-07T01:41:28;23.80;;;9.30;;
73331;SDS011;61560;33.718;73.040;2022-12-07T01:47:00;25.70;;;8.95;;
73331;SDS011;61560;33.718;73.040;2022-12-07T01:49:33;22.00;;;8.30;;
73331;SDS011;61560;33.718;73.040;2022-12-07T01:52:15;20.23;;;9.02;;
73331;SDS011;61560;33.718;73.040;2022-12-07T01:54:54;21.80;;;9.82;;
73331;SDS011;61560;33.718;73.040;2022-12-07T01:57:24;20.27;;;9.32;;
73331;SDS011;61560;33.718;73.040;2022-12-07T01:59:53;26.70;;;9.98;;
73331;SDS011;61560;33.718;73.040;2022-12-07T02:02:26;18.95;;;9.07;;
73331;SDS011;61560;33.718;73.040;2022-12-07T02:04:57;24.52;;;8.98;;
73331;SDS011;61560;33.718;73.040;2022-12-07T02:07:27;21.98;;;8.98;;
73331;SDS011;61560;33.718;73.040;2022-12-07T02:09:56;20.77;;;9.32;;
73331;SDS011;61560;33.718;73.040;2022-12-07T02:12:23;22.55;;;8.52;;
73331;SDS011;61560;33.718;73.040;2022-12-07T02:14:51;28.00;;;9.05;;
73331;SDS011;61560;33.718;73.040;2022-12-07T02:17:21;29.88;;;9.57;;
73331;SDS011;61560;33.718;73.040;2022-12-07T02:20:16;22.40;;;8.75;;
73331;SDS011;61560;33.718;73.040;2022-12-07T02:23:29;21.48;;;7.75;;
73331;SDS011;61560;33.718;73.040;2022-12-07T02:29:11;19.30;;;8.63;;
73331;SDS011;61560;33.718;73.040;2022-12-07T02:31:49;24.90;;;8.80;;
73331;SDS011;61560;33.718;73.040;2022-12-07T02:34:35;24.33;;;10.23;;
73331;SDS011;61560;33.718;73.040;2022-12-07T02:40:16;37.63;;;13.10;;
73331;SDS011;61560;33.718;73.040;2022-12-07T02:43:04;35.28;;;13.48;;
73331;SDS011;61560;33.718;73.040;2022-12-07T02:45:32;40.40;;;14.48;;
73331;SDS011;61560;33.718;73.040;2022-12-07T02:48:03;37.78;;;15.10;;
73331;SDS011;61560;33.718;73.040;2022-12-07T02:50:33;43.22;;;15.50;;
73331;SDS011;61560;33.718;73.040;2022-12-07T02:53:00;48.40;;;15.88;;
73331;SDS011;61560;33.718;73.040;2022-12-07T02:55:29;43.45;;;15.98;;
73331;SDS011;61560;33.718;73.040;2022-12-07T03:00:44;41.72;;;16.45;;
73331;SDS011;61560;33.718;73.040;2022-12-07T03:03:31;41.83;;;16.10;;
73331;SDS011;61560;33.718;73.040;2022-12-07T03:06:09;46.35;;;16.50;;
73331;SDS011;61560;33.718;73.040;2022-12-07T03:11:51;42.35;;;15.88;;
73331;SDS011;61560;33.718;73.040;2022-12-07T03:14:45;49.50;;;16.48;;
73331;SDS011;61560;33.718;73.040;2022-12-07T03:17:24;49.30;;;18.00;;
73331;SDS011;61560;33.718;73.040;2022-12-07T03:19:58;42.25;;;15.65;;
73331;SDS011;61560;33.718;73.040;2022-12-07T03:22:28;38.38;;;16.15;;
73331;SDS011;61560;33.718;73.040;2022-12-07T03:25:00;46.75;;;17.40;;
73331;SDS011;61560;33.718;73.040;2022-12-07T03:27:45;40.30;;;15.48;;
73331;SDS011;61560;33.718;73.040;2022-12-07T03:30:27;42.38;;;16.95;;
73331;SDS011;61560;33.718;73.040;2022-12-07T03:33:02;43.17;;;17.38;;
73331;SDS011;61560;33.718;73.040;2022-12-07T03:35:47;43.50;;;16.40;;
73331;SDS011;61560;33.718;73.040;2022-12-07T03:41:08;40.13;;;16.55;;
73331;SDS011;61560;33.718;73.040;2022-12-07T03:43:39;39.90;;;15.35;;
73331;SDS011;61560;33.718;73.040;2022-12-07T03:48:54;44.30;;;16.90;;
73331;SDS011;61560;33.718;73.040;2022-12-07T03:52:00;38.97;;;16.42;;
73331;SDS011;61560;33.718;73.040;2022-12-07T03:54:50;41.25;;;16.38;;
73331;SDS011;61560;33.718;73.040;2022-12-07T03:57:37;41.83;;;18.13;;
73331;SDS011;61560;33.718;73.040;2022-12-07T04:00:08;43.13;;;16.15;;
73331;SDS011;61560;33.718;73.040;2022-12-07T04:02:40;41.63;;;17.17;;
73331;SDS011;61560;33.718;73.040;2022-12-07T04:05:09;50.50;;;18.05;;
73331;SDS011;61560;33.718;73.040;2022-12-07T04:07:36;45.47;;;17.83;;
73331;SDS011;61560;33.718;73.040;2022-12-07T04:10:05;50.20;;;17.05;;
73331;SDS011;61560;33.718;73.040;2022-12-07T04:12:32;47.25;;;18.65;;
73331;SDS011;61560;33.718;73.040;2022-12-07T04:15:01;43.20;;;18.02;;
73331;SDS011;61560;33.718;73.040;2022-12-07T04:17:32;44.83;;;19.02;;
73331;SDS011;61560;33.718;73.040;2022-12-07T04:19:59;43.53;;;17.92;;
73331;SDS011;61560;33.718;73.040;2022-12-07T04:22:26;45.20;;;19.60;;
73331;SDS011;61560;33.718;73.040;2022-12-07T04:24:53;51.22;;;18.98;;
73331;SDS011;61560;33.718;73.040;2022-12-07T04:27:20;60.47;;;21.38;;
73331;SDS011;61560;33.718;73.040;2022-12-07T04:29:47;67.13;;;19.20;;
73331;SDS011;61560;33.718;73.040;2022-12-07T04:32:14;58.63;;;19.27;;
73331;SDS011;61560;33.718;73.040;2022-12-07T04:34:41;58.47;;;19.27;;
73331;SDS011;61560;33.718;73.040;2022-12-07T04:37:09;46.03;;;18.00;;
73331;SDS011;61560;33.718;73.040;2022-12-07T04:39:36;56.40;;;18.88;;
73331;SDS011;61560;33.718;73.040;2022-12-07T04:42:03;62.85;;;20.77;;
73331;SDS011;61560;33.718;73.040;2022-12-07T04:44:30;49.55;;;21.05;;
73331;SDS011;61560;33.718;73.040;2022-12-07T04:46:58;58.53;;;20.75;;
73331;SDS011;61560;33.718;73.040;2022-12-07T04:49:25;50.67;;;20.10;;
73331;SDS011;61560;33.718;73.040;2022-12-07T04:51:52;63.53;;;22.73;;
73331;SDS011;61560;33.718;73.040;2022-12-07T04:54:19;60.70;;;24.17;;
73331;SDS011;61560;33.718;73.040;2022-12-07T04:56:46;71.93;;;27.80;;
73331;SDS011;61560;33.718;73.040;2022-12-07T04:59:14;61.45;;;24.52;;
73331;SDS011;61560;33.718;73.040;2022-12-07T05:01:44;63.78;;;23.92;;
73331;SDS011;61560;33.718;73.040;2022-12-07T05:04:11;64.82;;;22.88;;
73331;SDS011;61560;33.718;73.040;2022-12-07T05:06:39;57.30;;;21.38;;
73331;SDS011;61560;33.718;73.040;2022-12-07T05:09:05;53.38;;;20.98;;
73331;SDS011;61560;33.718;73.040;2022-12-07T05:11:35;59.33;;;23.65;;
73331;SDS011;61560;33.718;73.040;2022-12-07T05:14:11;52.17;;;21.90;;
73331;SDS011;61560;33.718;73.040;2022-12-07T05:16:40;52.28;;;20.58;;
73331;SDS011;61560;33.718;73.040;2022-12-07T05:19:08;59.25;;;22.80;;
73331;SDS011;61560;33.718;73.040;2022-12-07T05:21:36;59.05;;;23.63;;
73331;SDS011;61560;33.718;73.040;2022-12-07T05:24:05;51.28;;;22.92;;
73331;SDS011;61560;33.718;73.040;2022-12-07T05:26:33;58.00;;;23.00;;
73331;SDS011;61560;33.718;73.040;2022-12-07T05:29:00;61.00;;;22.00;;
73331;SDS011;61560;33.718;73.040;2022-12-07T05:31:29;54.60;;;21.20;;
73331;SDS011;61560;33.718;73.040;2022-12-07T05:33:56;68.47;;;23.23;;
73331;SDS011;61560;33.718;73.040;2022-12-07T05:36:23;47.55;;;21.13;;
73331;SDS011;61560;33.718;73.040;2022-12-07T05:38:53;59.17;;;20.45;;
73331;SDS011;61560;33.718;73.040;2022-12-07T05:41:20;48.42;;;20.08;;
73331;SDS011;61560;33.718;73.040;2022-12-07T05:44:05;44.28;;;16.98;;
73331;SDS011;61560;33.718;73.040;2022-12-07T05:46:33;44.78;;;18.20;;
73331;SDS011;61560;33.718;73.040;2022-12-07T05:49:00;44.92;;;17.02;;
73331;SDS011;61560;33.718;73.040;2022-12-07T05:51:27;43.83;;;16.05;;
73331;SDS011;61560;33.718;73.040;2022-12-07T05:53:54;40.20;;;15.88;;
73331;SDS011;61560;33.718;73.040;2022-12-07T05:56:21;41.17;;;17.98;;
73331;SDS011;61560;33.718;73.040;2022-12-07T05:58:49;47.67;;;18.58;;
73331;SDS011;61560;33.718;73.040;2022-12-07T06:01:36;49.95;;;17.77;;
73331;SDS011;61560;33.718;73.040;2022-12-07T06:04:09;47.55;;;19.20;;
73331;SDS011;61560;33.718;73.040;2022-12-07T06:06:39;42.03;;;17.55;;
73331;SDS011;61560;33.718;73.040;2022-12-07T06:09:10;45.75;;;18.17;;
73331;SDS011;61560;33.718;73.040;2022-12-07T06:11:41;46.67;;;19.33;;
73331;SDS011;61560;33.718;73.040;2022-12-07T06:14:28;56.28;;;20.42;;
73331;SDS011;61560;33.718;73.040;2022-12-07T06:16:55;41.03;;;17.58;;
73331;SDS011;61560;33.718;73.040;2022-12-07T06:19:22;57.75;;;21.65;;
73331;SDS011;61560;33.718;73.040;2022-12-07T06:21:49;54.63;;;21.75;;
73331;SDS011;61560;33.718;73.040;2022-12-07T06:24:17;56.65;;;24.08;;
73331;SDS011;61560;33.718;73.040;2022-12-07T06:26:44;71.53;;;25.92;;
73331;SDS011;61560;33.718;73.040;2022-12-07T06:29:12;64.65;;;25.70;;
73331;SDS011;61560;33.718;73.040;2022-12-07T06:31:40;70.30;;;27.15;;
73331;SDS011;61560;33.718;73.040;2022-12-07T06:34:12;78.53;;;29.40;;
73331;SDS011;61560;33.718;73.040;2022-12-07T06:36:41;71.97;;;30.80;;
73331;SDS011;61560;33.718;73.040;2022-12-07T06:39:09;78.35;;;32.22;;
73331;SDS011;61560;33.718;73.040;2022-12-07T06:41:37;86.68;;;32.20;;
73331;SDS011;61560;33.718;73.040;2022-12-07T06:44:06;82.50;;;31.80;;
73331;SDS011;61560;33.718;73.040;2022-12-07T06:46:33;91.45;;;33.13;;
73331;SDS011;61560;33.718;73.040;2022-12-07T06:49:04;79.10;;;34.05;;
73331;SDS011;61560;33.718;73.040;2022-12-07T06:51:33;80.45;;;34.67;;
73331;SDS011;61560;33.718;73.040;2022-12-07T06:54:07;75.47;;;31.95;;
73331;SDS011;61560;33.718;73.040;2022-12-07T06:56:35;88.97;;;39.70;;
73331;SDS011;61560;33.718;73.040;2022-12-07T06:59:05;91.72;;;40.17;;
73331;SDS011;61560;33.718;73.040;2022-12-07T07:01:33;86.47;;;38.97;;
73331;SDS011;61560;33.718;73.040;2022-12-07T07:04:02;91.60;;;38.17;;
73331;SDS011;61560;33.718;73.040;2022-12-07T07:06:36;85.57;;;39.97;;
73331;SDS011;61560;33.718;73.040;2022-12-07T07:09:03;88.18;;;38.92;;
73331;SDS011;61560;33.718;73.040;2022-12-07T07:11:31;99.03;;;38.92;;
73331;SDS011;61560;33.718;73.040;2022-12-07T07:13:58;101.00;;;40.30;;
73331;SDS011;61560;33.718;73.040;2022-12-07T07:16:31;108.10;;;40.75;;
73331;SDS011;61560;33.718;73.040;2022-12-07T07:18:58;121.45;;;43.40;;
73331;SDS011;61560;33.718;73.040;2022-12-07T07:21:25;105.80;;;40.60;;
73331;SDS011;61560;33.718;73.040;2022-12-07T07:23:52;93.78;;;40.25;;
73331;SDS011;61560;33.718;73.040;2022-12-07T07:26:19;88.30;;;37.40;;
73331;SDS011;61560;33.718;73.040;2022-12-07T07:28:46;95.55;;;41.58;;
73331;SDS011;61560;33.718;73.040;2022-12-07T07:31:14;116.20;;;42.58;;
73331;SDS011;61560;33.718;73.040;2022-12-07T07:33:43;104.50;;;40.05;;
73331;SDS011;61560;33.718;73.040;2022-12-07T07:36:12;80.03;;;35.33;;
73331;SDS011;61560;33.718;73.040;2022-12-07T07:38:39;83.93;;;34.38;;
73331;SDS011;61560;33.718;73.040;2022-12-07T07:41:08;83.57;;;34.72;;
73331;SDS011;61560;33.718;73.040;2022-12-07T07:43:35;77.93;;;31.35;;
73331;SDS011;61560;33.718;73.040;2022-12-07T07:46:03;66.82;;;25.35;;
73331;SDS011;61560;33.718;73.040;2022-12-07T07:48:30;51.00;;;21.95;;
73331;SDS011;61560;33.718;73.040;2022-12-07T07:50:59;49.08;;;19.67;;
73331;SDS011;61560;33.718;73.040;2022-12-07T07:53:25;41.28;;;16.45;;
73331;SDS011;61560;33.718;73.040;2022-12-07T07:55:53;40.72;;;15.95;;
73331;SDS011;61560;33.718;73.040;2022-12-07T07:58:22;40.92;;;14.70;;
73331;SDS011;61560;33.718;73.040;2022-12-07T08:00:49;34.30;;;13.60;;
73331;SDS011;61560;33.718;73.040;2022-12-07T08:03:16;38.38;;;14.75;;
73331;SDS011;61560;33.718;73.040;2022-12-07T08:05:45;30.30;;;12.70;;
73331;SDS011;61560;33.718;73.040;2022-12-07T08:08:12;29.67;;;12.82;;
73331;SDS011;61560;33.718;73.040;2022-12-07T08:10:39;30.92;;;13.82;;
73331;SDS011;61560;33.718;73.040;2022-12-07T08:13:06;30.83;;;13.65;;
73331;SDS011;61560;33.718;73.040;2022-12-07T08:15:43;31.52;;;12.90;;
73331;SDS011;61560;33.718;73.040;2022-12-07T08:18:12;32.75;;;11.70;;
73331;SDS011;61560;33.718;73.040;2022-12-07T08:20:41;22.67;;;10.90;;
73331;SDS011;61560;33.718;73.040;2022-12-07T08:23:10;30.77;;;9.70;;
73331;SDS011;61560;33.718;73.040;2022-12-07T08:25:38;24.45;;;8.93;;
73331;SDS011;61560;33.718;73.040;2022-12-07T08:28:07;18.48;;;8.77;;
73331;SDS011;61560;33.718;73.040;2022-12-07T08:30:35;20.88;;;9.57;;
73331;SDS011;61560;33.718;73.040;2022-12-07T08:33:03;19.50;;;9.55;;
73331;SDS011;61560;33.718;73.040;2022-12-07T08:35:32;17.52;;;8.48;;
73331;SDS011;61560;33.718;73.040;2022-12-07T08:38:00;17.63;;;9.55;;
73331;SDS011;61560;33.718;73.040;2022-12-07T08:40:29;18.88;;;8.15;;
73331;SDS011;61560;33.718;73.040;2022-12-07T08:42:56;19.02;;;7.78;;
73331;SDS011;61560;33.718;73.040;2022-12-07T08:45:23;18.38;;;7.97;;
73331;SDS011;61560;33.718;73.040;2022-12-07T08:47:52;20.27;;;7.72;;
73331;SDS011;61560;33.718;73.040;2022-12-07T08:50:43;26.88;;;9.35;;
73331;SDS011;61560;33.718;73.040;2022-12-07T08:53:11;18.27;;;8.95;;
73331;SDS011;61560;33.718;73.040;2022-12-07T08:55:40;26.13;;;9.25;;
73331;SDS011;61560;33.718;73.040;2022-12-07T08:58:09;22.15;;;9.35;;
73331;SDS011;61560;33.718;73.040;2022-12-07T09:00:36;21.38;;;9.98;;
73331;SDS011;61560;33.718;73.040;2022-12-07T09:03:03;25.65;;;10.00;;
73331;SDS011;61560;33.718;73.040;2022-12-07T09:05:31;31.98;;;9.75;;
73331;SDS011;61560;33.718;73.040;2022-12-07T09:08:00;26.10;;;11.45;;
73331;SDS011;61560;33.718;73.040;2022-12-07T09:10:28;29.13;;;11.23;;
73331;SDS011;61560;33.718;73.040;2022-12-07T09:12:56;26.17;;;11.00;;
73331;SDS011;61560;33.718;73.040;2022-12-07T09:15:30;22.33;;;10.50;;
73331;SDS011;61560;33.718;73.040;2022-12-07T09:17:57;26.17;;;10.45;;
73331;SDS011;61560;33.718;73.040;2022-12-07T09:20:24;27.40;;;9.63;;
73331;SDS011;61560;33.718;73.040;2022-12-07T09:22:52;23.25;;;10.27;;
73331;SDS011;61560;33.718;73.040;2022-12-07T09:25:19;23.05;;;9.57;;
73331;SDS011;61560;33.718;73.040;2022-12-07T09:27:47;18.30;;;9.23;;
73331;SDS011;61560;33.718;73.040;2022-12-07T09:30:15;22.90;;;8.43;;
73331;SDS011;61560;33.718;73.040;2022-12-07T09:32:42;17.00;;;8.05;;
73331;SDS011;61560;33.718;73.040;2022-12-07T09:35:09;22.67;;;9.15;;
73331;SDS011;61560;33.718;73.040;2022-12-07T09:37:36;20.00;;;8.48;;
73331;SDS011;61560;33.718;73.040;2022-12-07T09:40:03;27.88;;;10.05;;
73331;SDS011;61560;33.718;73.040;2022-12-07T09:42:36;22.30;;;10.20;;
73331;SDS011;61560;33.718;73.040;2022-12-07T09:45:13;21.30;;;10.07;;
73331;SDS011;61560;33.718;73.040;2022-12-07T09:47:43;24.30;;;10.23;;
73331;SDS011;61560;33.718;73.040;2022-12-07T09:50:15;24.05;;;9.73;;
73331;SDS011;61560;33.718;73.040;2022-12-07T09:52:47;26.98;;;10.18;;
73331;SDS011;61560;33.718;73.040;2022-12-07T09:55:16;24.85;;;10.45;;
73331;SDS011;61560;33.718;73.040;2022-12-07T09:57:57;23.23;;;9.90;;
73331;SDS011;61560;33.718;73.040;2022-12-07T10:00:24;21.63;;;10.00;;
73331;SDS011;61560;33.718;73.040;2022-12-07T10:02:58;22.73;;;10.70;;
73331;SDS011;61560;33.718;73.040;2022-12-07T10:08:12;24.73;;;11.18;;
73331;SDS011;61560;33.718;73.040;2022-12-07T10:10:45;22.50;;;9.95;;
73331;SDS011;61560;33.718;73.040;2022-12-07T10:13:21;25.70;;;10.52;;
73331;SDS011;61560;33.718;73.040;2022-12-07T10:15:59;28.63;;;10.90;;
73331;SDS011;61560;33.718;73.040;2022-12-07T10:18:28;20.98;;;10.45;;
73331;SDS011;61560;33.718;73.040;2022-12-07T10:23:41;34.35;;;12.10;;
73331;SDS011;61560;33.718;73.040;2022-12-07T10:34:49;36.92;;;12.30;;
73331;SDS011;61560;33.718;73.040;2022-12-07T10:37:40;30.42;;;11.95;;
73331;SDS011;61560;33.718;73.040;2022-12-07T10:40:23;29.45;;;11.70;;
73331;SDS011;61560;33.718;73.040;2022-12-07T10:43:07;24.05;;;11.35;;
73331;SDS011;61560;33.718;73.040;2022-12-07T10:45:53;29.48;;;13.25;;
73331;SDS011;61560;33.718;73.040;2022-12-07T10:48:48;28.17;;;12.00;;
73331;SDS011;61560;33.718;73.040;2022-12-07T11:02:45;26.08;;;11.23;;
73331;SDS011;61560;33.718;73.040;2022-12-07T11:05:45;31.63;;;12.60;;
73331;SDS011;61560;33.718;73.040;2022-12-07T11:08:54;22.88;;;10.52;;
73331;SDS011;61560;33.718;73.040;2022-12-07T11:14:12;21.02;;;10.02;;
73331;SDS011;61560;33.718;73.040;2022-12-07T11:28:13;22.40;;;9.75;;
73331;SDS011;61560;33.718;73.040;2022-12-07T11:36:38;21.23;;;10.15;;
73331;SDS011;61560;33.718;73.040;2022-12-07T11:42:49;24.92;;;9.40;;
73331;SDS011;61560;33.718;73.040;2022-12-07T11:45:15;19.67;;;8.75;;
73331;SDS011;61560;33.718;73.040;2022-12-07T11:47:52;20.77;;;9.27;;
73331;SDS011;61560;33.718;73.040;2022-12-07T11:53:21;18.80;;;8.75;;
73331;SDS011;61560;33.718;73.040;2022-12-07T11:56:09;22.85;;;9.02;;
73331;SDS011;61560;33.718;73.040;2022-12-07T11:58:52;17.05;;;8.00;;
73331;SDS011;61560;33.718;73.040;2022-12-07T12:07:14;20.58;;;9.02;;
73331;SDS011;61560;33.718;73.040;2022-12-07T12:09:50;26.13;;;9.68;;
73331;SDS011;61560;33.718;73.040;2022-12-07T12:15:33;24.17;;;10.85;;
73331;SDS011;61560;33.718;73.040;2022-12-07T12:21:04;25.17;;;9.55;;
73331;SDS011;61560;33.718;73.040;2022-12-07T12:24:24;19.20;;;8.55;;
73331;SDS011;61560;33.718;73.040;2022-12-07T12:26:52;16.00;;;9.05;;
73331;SDS011;61560;33.718;73.040;2022-12-07T12:29:27;23.02;;;8.02;;
73331;SDS011;61560;33.718;73.040;2022-12-07T12:42:56;23.73;;;8.27;;
73331;SDS011;61560;33.718;73.040;2022-12-07T12:50:36;18.70;;;9.37;;
73331;SDS011;61560;33.718;73.040;2022-12-07T12:53:11;21.63;;;9.98;;
73331;SDS011;61560;33.718;73.040;2022-12-07T13:00:46;30.73;;;12.88;;
73331;SDS011;61560;33.718;73.040;2022-12-07T13:03:26;31.73;;;10.75;;
73331;SDS011;61560;33.718;73.040;2022-12-07T13:08:51;24.30;;;9.60;;
73331;SDS011;61560;33.718;73.040;2022-12-07T13:11:29;29.27;;;12.35;;
73331;SDS011;61560;33.718;73.040;2022-12-07T13:19:59;25.77;;;10.65;;
73331;SDS011;61560;33.718;73.040;2022-12-07T13:24:57;27.30;;;11.70;;
73331;SDS011;61560;33.718;73.040;2022-12-07T13:27:39;27.83;;;11.70;;
73331;SDS011;61560;33.718;73.040;2022-12-07T13:30:13;31.58;;;12.80;;
73331;SDS011;61560;33.718;73.040;2022-12-07T13:32:42;29.67;;;11.93;;
73331;SDS011;61560;33.718;73.040;2022-12-07T13:35:36;28.15;;;11.15;;
73331;SDS011;61560;33.718;73.040;2022-12-07T13:38:26;36.70;;;11.02;;
73331;SDS011;61560;33.718;73.040;2022-12-07T13:43:30;24.80;;;10.48;;
73331;SDS011;61560;33.718;73.040;2022-12-07T13:45:57;25.42;;;10.13;;
73331;SDS011;61560;33.718;73.040;2022-12-07T13:48:33;26.23;;;11.00;;
73331;SDS011;61560;33.718;73.040;2022-12-07T13:51:14;33.42;;;10.90;;
73331;SDS011;61560;33.718;73.040;2022-12-07T13:53:59;26.02;;;10.85;;
73331;SDS011;61560;33.718;73.040;2022-12-07T13:56:34;24.23;;;10.50;;
73331;SDS011;61560;33.718;73.040;2022-12-07T13:59:03;26.75;;;10.52;;
73331;SDS011;61560;33.718;73.040;2022-12-07T14:01:37;34.83;;;11.88;;
73331;SDS011;61560;33.718;73.040;2022-12-07T14:04:27;23.58;;;10.85;;
73331;SDS011;61560;33.718;73.040;2022-12-07T14:06:56;27.48;;;10.90;;
73331;SDS011;61560;33.718;73.040;2022-12-07T14:09:24;26.30;;;10.23;;
73331;SDS011;61560;33.718;73.040;2022-12-07T14:11:55;23.55;;;11.07;;
73331;SDS011;61560;33.718;73.040;2022-12-07T14:14:26;26.95;;;10.05;;
73331;SDS011;61560;33.718;73.040;2022-12-07T14:22:33;26.73;;;9.98;;
73331;SDS011;61560;33.718;73.040;2022-12-07T14:27:49;22.40;;;9.35;;
73331;SDS011;61560;33.718;73.040;2022-12-07T14:30:28;29.10;;;10.25;;
73331;SDS011;61560;33.718;73.040;2022-12-07T14:33:00;25.40;;;10.13;;
73331;SDS011;61560;33.718;73.040;2022-12-07T14:35:29;28.27;;;10.70;;
73331;SDS011;61560;33.718;73.040;2022-12-07T14:37:57;38.35;;;12.38;;
73331;SDS011;61560;33.718;73.040;2022-12-07T14:40:27;28.70;;;11.80;;
73331;SDS011;61560;33.718;73.040;2022-12-07T14:42:59;23.33;;;9.60;;
73331;SDS011;61560;33.718;73.040;2022-12-07T14:45:31;32.13;;;11.13;;
73331;SDS011;61560;33.718;73.040;2022-12-07T14:47:58;31.60;;;10.93;;
73331;SDS011;61560;33.718;73.040;2022-12-07T14:50:26;27.70;;;10.27;;
73331;SDS011;61560;33.718;73.040;2022-12-07T14:52:58;35.47;;;11.23;;
73331;SDS011;61560;33.718;73.040;2022-12-07T14:55:30;27.33;;;10.55;;
73331;SDS011;61560;33.718;73.040;2022-12-07T14:57:58;26.58;;;11.35;;
73331;SDS011;61560;33.718;73.040;2022-12-07T15:00:29;29.73;;;11.03;;
73331;SDS011;61560;33.718;73.040;2022-12-07T15:02:57;26.90;;;10.98;;
73331;SDS011;61560;33.718;73.040;2022-12-07T15:05:27;25.80;;;10.75;;
73331;SDS011;61560;33.718;73.040;2022-12-07T15:07:56;25.58;;;10.45;;
73331;SDS011;61560;33.718;73.040;2022-12-07T15:10:24;35.15;;;10.93;;
73331;SDS011;61560;33.718;73.040;2022-12-07T15:13:01;23.33;;;9.82;;
73331;SDS011;61560;33.718;73.040;2022-12-07T15:15:47;25.02;;;9.80;;
73331;SDS011;61560;33.718;73.040;2022-12-07T15:18:16;29.13;;;10.65;;
73331;SDS011;61560;33.718;73.040;2022-12-07T15:20:45;27.52;;;9.90;;
73331;SDS011;61560;33.718;73.040;2022-12-07T15:23:15;21.63;;;9.68;;
73331;SDS011;61560;33.718;73.040;2022-12-07T15:25:46;25.95;;;9.60;;
73331;SDS011;61560;33.718;73.040;2022-12-07T15:28:15;20.00;;;8.38;;
73331;SDS011;61560;33.718;73.040;2022-12-07T15:30:42;23.02;;;9.20;;
73331;SDS011;61560;33.718;73.040;2022-12-07T15:33:11;26.63;;;8.68;;
73331;SDS011;61560;33.718;73.040;2022-12-07T15:35:39;29.30;;;10.45;;
73331;SDS011;61560;33.718;73.040;2022-12-07T15:38:12;28.35;;;9.23;;
73331;SDS011;61560;33.718;73.040;2022-12-07T15:40:40;23.48;;;10.63;;
73331;SDS011;61560;33.718;73.040;2022-12-07T15:43:09;24.88;;;9.88;;
73331;SDS011;61560;33.718;73.040;2022-12-07T15:45:58;23.48;;;10.18;;
73331;SDS011;61560;33.718;73.040;2022-12-07T15:48:25;30.73;;;11.63;;
73331;SDS011;61560;33.718;73.040;2022-12-07T15:51:00;28.20;;;10.25;;
73331;SDS011;61560;33.718;73.040;2022-12-07T15:53:35;35.17;;;11.27;;
73331;SDS011;61560;33.718;73.040;2022-12-07T15:56:06;31.75;;;11.02;;
73331;SDS011;61560;33.718;73.040;2022-12-07T15:58:34;20.60;;;8.95;;
73331;SDS011;61560;33.718;73.040;2022-12-07T16:01:11;25.23;;;9.07;;
73331;SDS011;61560;33.718;73.040;2022-12-07T16:03:42;31.90;;;9.43;;
73331;SDS011;61560;33.718;73.040;2022-12-07T16:06:17;32.92;;;12.63;;
73331;SDS011;61560;33.718;73.040;2022-12-07T16:08:46;24.75;;;9.40;;
73331;SDS011;61560;33.718;73.040;2022-12-07T16:11:13;27.77;;;10.90;;
73331;SDS011;61560;33.718;73.040;2022-12-07T16:13:44;27.83;;;10.30;;
73331;SDS011;61560;33.718;73.040;2022-12-07T16:16:12;28.48;;;10.93;;
73331;SDS011;61560;33.718;73.040;2022-12-07T16:18:45;25.73;;;10.60;;
73331;SDS011;61560;33.718;73.040;2022-12-07T16:21:14;25.85;;;10.57;;
73331;SDS011;61560;33.718;73.040;2022-12-07T16:23:42;23.40;;;10.15;;
73331;SDS011;61560;33.718;73.040;2022-12-07T16:26:14;25.48;;;10.10;;
73331;SDS011;61560;33.718;73.040;2022-12-07T16:28:49;27.80;;;10.48;;
73331;SDS011;61560;33.718;73.040;2022-12-07T16:31:19;25.63;;;10.55;;
73331;SDS011;61560;33.718;73.040;2022-12-07T16:33:54;31.38;;;11.77;;
73331;SDS011;61560;33.718;73.040;2022-12-07T16:36:24;27.80;;;10.38;;
73331;SDS011;61560;33.718;73.040;2022-12-07T16:38:53;28.25;;;10.85;;
73331;SDS011;61560;33.718;73.040;2022-12-07T16:41:21;34.58;;;11.27;;
73331;SDS011;61560;33.718;73.040;2022-12-07T16:43:49;25.63;;;9.45;;
73331;SDS011;61560;33.718;73.040;2022-12-07T16:46:21;25.75;;;11.50;;
73331;SDS011;61560;33.718;73.040;2022-12-07T16:48:49;28.85;;;10.15;;
73331;SDS011;61560;33.718;73.040;2022-12-07T16:51:26;29.65;;;11.48;;
73331;SDS011;61560;33.718;73.040;2022-12-07T16:53:55;30.20;;;11.63;;